Time;durP1;ratioP1;P1;durP2;ratioP2;P2;SDS_P1;SDS_P2;PMS_P1;PMS_P2;Temp;Humidity;BMP_temperature;BMP_pressure;BME280_temperature;BME280_humidity;BME280_pressure;Samples;Min_cycle;Max_cycle;Signal;HPM_P1;HPM_P2
2022/05/21 00:02:06;;;;;;;6.80;4.90;;;12.70;99.90;;;;;;5115157;28;20235;-72
2022/05/21 00:04:32;;;;;;;9.40;4.93;;;12.60;99.90;;;;;;5097119;28;20184;-71
2022/05/21 00:06:58;;;;;;;9.83;5.20;;;12.60;99.90;;;;;;5116241;28;20176;-72
2022/05/21 00:09:25;;;;;;;7.80;4.77;;;12.60;99.90;;;;;;5115110;28;20204;-72
2022/05/21 00:11:51;;;;;;;8.43;4.93;;;12.60;99.90;;;;;;5096863;28;20172;-72
2022/05/21 00:14:16;;;;;;;9.23;4.67;;;12.60;99.90;;;;;;5115147;28;20267;-72
2022/05/21 00:16:42;;;;;;;6.90;5.27;;;12.60;99.90;;;;;;5114942;28;20164;-72
2022/05/21 00:19:08;;;;;;;10.73;5.20;;;12.60;99.90;;;;;;5115158;28;20199;-72
2022/05/21 00:21:33;;;;;;;7.77;5.27;;;12.60;99.90;;;;;;5115391;28;20571;-72
2022/05/21 00:23:59;;;;;;;9.00;5.80;;;12.60;99.90;;;;;;5115692;28;20172;-72
2022/05/21 00:26:25;;;;;;;6.87;5.03;;;12.60;99.90;;;;;;5115182;28;20168;-72
2022/05/21 00:28:51;;;;;;;9.63;6.70;;;12.60;99.90;;;;;;5096524;28;20218;-72
2022/05/21 00:31:18;;;;;;;9.23;6.63;;;12.60;99.90;;;;;;5114931;28;20196;-72
2022/05/21 00:33:46;;;;;;;7.87;6.63;;;12.60;99.90;;;;;;5096593;28;20547;-72
2022/05/21 00:36:12;;;;;;;11.03;7.73;;;12.50;99.90;;;;;;5114843;28;20164;-72
2022/05/21 00:38:39;;;;;;;12.20;8.10;;;12.50;99.90;;;;;;5095912;28;20211;-72
2022/05/21 00:41:06;;;;;;;13.57;8.53;;;12.50;99.90;;;;;;5114829;28;20256;-72
2022/05/21 00:44:05;;;;;;;16.37;10.10;;;12.50;99.90;;;;;;5114876;28;20199;-72
2022/05/21 00:46:35;;;;;;;15.57;8.77;;;12.50;99.90;;;;;;5063612;28;20184;-72
2022/05/21 00:49:32;;;;;;;14.93;10.50;;;12.50;99.90;;;;;;5114736;28;20283;-72
2022/05/21 00:52:10;;;;;;;12.57;10.20;;;12.50;99.90;;;;;;5114904;28;20161;-72
2022/05/21 00:54:48;;;;;;;15.47;11.50;;;12.50;99.90;;;;;;5114977;28;20149;-72
2022/05/21 00:57:28;;;;;;;19.57;11.90;;;12.60;99.90;;;;;;5114989;28;20192;-72
2022/05/21 01:00:01;;;;;;;15.57;11.50;;;12.60;99.90;;;;;;5114836;28;20653;-72
2022/05/21 01:02:37;;;;;;;15.45;11.80;;;12.60;99.90;;;;;;5096353;28;20255;-73
2022/05/21 01:05:06;;;;;;;19.40;12.13;;;12.60;99.90;;;;;;5114770;28;20641;-74
2022/05/21 01:07:31;;;;;;;18.53;11.57;;;12.60;99.90;;;;;;5096322;28;20230;-74
2022/05/21 01:10:00;;;;;;;17.93;12.27;;;12.60;99.90;;;;;;5096208;28;20228;-74
2022/05/21 01:12:32;;;;;;;16.73;12.37;;;12.60;99.90;;;;;;5096422;28;20176;-74
2022/05/21 01:15:01;;;;;;;18.57;11.60;;;12.60;99.90;;;;;;5096316;28;20188;-74
2022/05/21 01:17:27;;;;;;;20.90;11.97;;;12.60;99.90;;;;;;5096117;28;20172;-74
2022/05/21 01:20:11;;;;;;;16.07;11.77;;;12.60;99.90;;;;;;5096271;28;20237;-74
2022/05/21 01:22:45;;;;;;;20.20;12.43;;;12.60;99.90;;;;;;5113447;28;20628;-75
2022/05/21 01:25:16;;;;;;;16.93;12.67;;;12.50;99.90;;;;;;5114868;28;20171;-74
2022/05/21 01:27:43;;;;;;;18.30;12.17;;;12.50;99.90;;;;;;5114911;28;20329;-74
2022/05/21 01:30:12;;;;;;;20.10;13.30;;;12.40;99.90;;;;;;5114443;28;20680;-74
2022/05/21 01:32:38;;;;;;;16.13;12.30;;;12.40;99.90;;;;;;5096232;28;20179;-74
2022/05/21 01:35:06;;;;;;;19.63;13.27;;;12.30;99.90;;;;;;5114323;28;20586;-74
2022/05/21 01:37:32;;;;;;;23.77;13.33;;;12.20;99.90;;;;;;5113618;28;20200;-74
2022/05/21 01:39:58;;;;;;;20.77;14.27;;;12.20;99.90;;;;;;5114605;28;20203;-74
2022/05/21 01:42:24;;;;;;;19.53;12.97;;;12.10;99.90;;;;;;5114751;28;20640;-74
2022/05/21 01:44:52;;;;;;;18.67;12.47;;;12.00;99.90;;;;;;5114605;28;20588;-74
2022/05/21 01:47:19;;;;;;;20.17;13.13;;;11.90;99.90;;;;;;5095970;28;20199;-74
2022/05/21 01:49:46;;;;;;;20.10;12.20;;;11.90;99.90;;;;;;5115910;28;20657;-75
2022/05/21 01:52:13;;;;;;;16.70;12.20;;;11.80;99.90;;;;;;5101516;28;20181;-74
2022/05/21 01:54:39;;;;;;;16.70;12.33;;;11.80;99.90;;;;;;5101464;28;20241;-75
2022/05/21 01:57:06;;;;;;;19.47;12.40;;;11.80;99.90;;;;;;5100826;28;20520;-74
2022/05/21 01:59:32;;;;;;;19.83;12.70;;;11.80;99.90;;;;;;5117680;28;20181;-74
2022/05/21 02:01:59;;;;;;;19.93;12.93;;;11.70;99.90;;;;;;5118319;28;20259;-74
2022/05/21 02:04:24;;;;;;;17.10;11.73;;;11.70;99.90;;;;;;5118395;28;20232;-74
2022/05/21 02:06:50;;;;;;;17.00;11.10;;;11.70;99.90;;;;;;5099988;28;20176;-74
2022/05/21 02:09:16;;;;;;;15.90;11.20;;;11.60;99.90;;;;;;5100018;28;20208;-74
2022/05/21 02:11:43;;;;;;;18.70;11.43;;;11.60;99.90;;;;;;5100006;28;20180;-74
2022/05/21 02:14:09;;;;;;;17.37;12.13;;;11.60;99.90;;;;;;5099955;28;20275;-74
2022/05/21 02:16:36;;;;;;;16.83;11.57;;;11.50;99.90;;;;;;5117777;28;20168;-74
2022/05/21 02:19:03;;;;;;;15.03;10.80;;;11.60;99.90;;;;;;5099660;28;20196;-74
2022/05/21 02:21:31;;;;;;;16.37;10.30;;;11.60;99.90;;;;;;5099794;28;20215;-74
2022/05/21 02:23:56;;;;;;;16.53;10.40;;;11.60;99.90;;;;;;5099807;28;20189;-74
2022/05/21 02:26:23;;;;;;;16.87;10.47;;;11.60;99.90;;;;;;5099717;28;20184;-74
2022/05/21 02:28:49;;;;;;;15.33;11.13;;;11.60;99.90;;;;;;5117771;28;20545;-74
2022/05/21 02:31:15;;;;;;;15.97;9.73;;;11.60;99.90;;;;;;5117396;28;20204;-74
2022/05/21 02:33:42;;;;;;;16.53;10.10;;;11.70;99.90;;;;;;5099752;28;20211;-74
2022/05/21 02:36:08;;;;;;;14.07;8.63;;;11.70;99.90;;;;;;5117845;28;20200;-74
2022/05/21 02:41:25;;;;;;;15.77;8.47;;;11.70;99.90;;;;;;5086332;28;20268;-74
2022/05/21 02:43:51;;;;;;;14.13;8.50;;;11.70;99.90;;;;;;5117774;28;20193;-74
2022/05/21 02:46:17;;;;;;;12.77;7.90;;;11.70;99.90;;;;;;5099414;28;20177;-74
2022/05/21 02:48:43;;;;;;;14.30;7.80;;;11.70;99.90;;;;;;5118415;28;20208;-74
2022/05/21 02:51:10;;;;;;;13.33;8.50;;;11.70;99.90;;;;;;5119193;28;20206;-74
2022/05/21 02:53:36;;;;;;;13.83;7.90;;;11.70;99.90;;;;;;5106409;28;20186;-74
2022/05/21 02:56:08;;;;;;;11.90;7.40;;;11.80;99.90;;;;;;5108022;28;20255;-73
2022/05/21 02:58:34;;;;;;;11.10;6.77;;;11.80;99.90;;;;;;5108014;28;20238;-73
2022/05/21 03:00:59;;;;;;;12.27;7.13;;;11.90;99.90;;;;;;5123514;28;20148;-74
2022/05/21 03:03:25;;;;;;;11.33;7.17;;;11.90;99.90;;;;;;5121045;28;20172;-74
2022/05/21 03:05:51;;;;;;;11.23;7.03;;;11.90;99.90;;;;;;5101952;28;20176;-74
2022/05/21 03:11:02;;;;;;;14.97;6.73;;;12.00;99.90;;;;;;5117880;28;20171;-74
2022/05/21 03:13:28;;;;;;;11.93;7.43;;;12.00;99.90;;;;;;5098533;28;20262;-74
2022/05/21 03:15:56;;;;;;;10.50;7.67;;;12.10;99.90;;;;;;5098526;28;20172;-75
2022/05/21 03:18:22;;;;;;;17.13;8.87;;;12.10;99.90;;;;;;5117070;28;20694;-74
2022/05/21 03:20:48;;;;;;;12.33;8.10;;;12.10;99.90;;;;;;5098518;28;20183;-75
2022/05/21 03:23:13;;;;;;;13.50;7.80;;;12.10;99.90;;;;;;5098609;28;20176;-74
2022/05/21 03:25:40;;;;;;;14.23;8.40;;;12.10;99.90;;;;;;5116850;28;20649;-74
2022/05/21 03:28:06;;;;;;;13.17;8.80;;;12.10;99.90;;;;;;5098558;28;20196;-74
2022/05/21 03:30:33;;;;;;;15.97;9.23;;;12.10;99.90;;;;;;5116669;28;20228;-73
2022/05/21 03:32:59;;;;;;;15.93;8.90;;;12.10;99.90;;;;;;5116151;28;20623;-72
2022/05/21 03:35:25;;;;;;;14.27;8.70;;;12.10;99.90;;;;;;5098144;28;20204;-73
2022/05/21 03:37:52;;;;;;;12.53;8.23;;;12.10;99.90;;;;;;5116187;28;20227;-74
2022/05/21 03:40:24;;;;;;;13.93;8.90;;;12.20;99.90;;;;;;5120325;28;20579;-73
2022/05/21 03:42:49;;;;;;;13.63;8.63;;;12.20;99.90;;;;;;5116768;28;20173;-73
2022/05/21 03:45:16;;;;;;;17.17;8.97;;;12.20;99.90;;;;;;5097920;28;20176;-73
2022/05/21 03:47:42;;;;;;;14.30;8.57;;;12.20;99.90;;;;;;5097551;28;20196;-73
2022/05/21 03:50:13;;;;;;;16.93;9.17;;;12.20;99.90;;;;;;5116003;28;20200;-74
2022/05/21 03:52:39;;;;;;;12.87;9.10;;;12.20;99.90;;;;;;5097945;28;20552;-72
2022/05/21 03:55:05;;;;;;;17.70;9.70;;;12.10;99.90;;;;;;5097806;28;20180;-72
2022/05/21 03:57:31;;;;;;;17.73;10.83;;;12.10;99.90;;;;;;5097337;28;20196;-72
2022/05/21 03:59:57;;;;;;;16.27;10.33;;;12.10;99.90;;;;;;5097414;28;20182;-73
2022/05/21 04:02:24;;;;;;;17.73;11.73;;;12.10;99.90;;;;;;5115616;28;20200;-72
2022/05/21 04:04:49;;;;;;;21.13;11.97;;;12.00;99.90;;;;;;5114553;28;20172;-73
2022/05/21 04:07:15;;;;;;;16.23;11.93;;;12.00;99.90;;;;;;5097300;28;20200;-72
2022/05/21 04:09:41;;;;;;;22.50;13.17;;;12.00;99.90;;;;;;5097117;28;20211;-72
2022/05/21 04:12:07;;;;;;;21.67;14.73;;;12.00;99.90;;;;;;5115593;28;20172;-72
2022/05/21 04:14:33;;;;;;;21.73;15.03;;;12.00;99.90;;;;;;5115270;28;20267;-72
2022/05/21 04:17:01;;;;;;;21.87;13.07;;;12.00;99.90;;;;;;5115112;28;20253;-73
2022/05/21 04:19:28;;;;;;;21.20;14.23;;;12.00;99.90;;;;;;5115755;28;20164;-72
2022/05/21 04:21:54;;;;;;;24.33;14.60;;;12.00;99.90;;;;;;5097130;28;20268;-73
2022/05/21 04:24:21;;;;;;;23.63;15.70;;;12.00;99.90;;;;;;5097077;28;20662;-71
2022/05/21 04:26:47;;;;;;;24.87;14.43;;;12.00;99.90;;;;;;5115343;28;20164;-72
2022/05/21 04:29:16;;;;;;;23.97;14.90;;;12.00;99.90;;;;;;5096847;28;20204;-71
2022/05/21 04:31:42;;;;;;;22.13;15.07;;;12.00;99.90;;;;;;5096460;28;20297;-72
2022/05/21 04:34:08;;;;;;;22.30;14.47;;;11.90;99.90;;;;;;5115146;28;20592;-72
2022/05/21 04:36:35;;;;;;;22.97;13.83;;;11.90;99.90;;;;;;5114871;28;20176;-72
2022/05/21 04:39:01;;;;;;;17.90;12.53;;;11.90;99.90;;;;;;5114961;28;20673;-73
2022/05/21 04:41:27;;;;;;;25.83;14.50;;;11.90;99.90;;;;;;5114773;28;20182;-73
2022/05/21 04:43:53;;;;;;;24.53;15.03;;;11.90;99.90;;;;;;5115110;28;20169;-72
2022/05/21 04:46:20;;;;;;;22.73;13.93;;;11.90;99.90;;;;;;5114709;28;20172;-73
2022/05/21 04:48:47;;;;;;;20.47;13.67;;;11.90;99.90;;;;;;5097022;28;20197;-73
2022/05/21 04:51:14;;;;;;;19.17;13.43;;;11.90;99.90;;;;;;5096735;28;20176;-74
2022/05/21 04:53:40;;;;;;;17.60;12.93;;;12.00;99.90;;;;;;5115063;28;20633;-74
2022/05/21 04:56:06;;;;;;;22.50;13.13;;;12.00;99.90;;;;;;5096559;28;20213;-73
2022/05/21 04:58:33;;;;;;;21.33;12.67;;;11.90;99.90;;;;;;5096436;28;20192;-73
2022/05/21 05:00:59;;;;;;;21.40;13.23;;;11.90;99.90;;;;;;5114862;28;20195;-74
2022/05/21 05:03:25;;;;;;;20.50;12.20;;;11.90;99.90;;;;;;5115356;28;20164;-74
2022/05/21 05:05:51;;;;;;;18.83;11.80;;;11.90;99.90;;;;;;5114820;28;20172;-74
2022/05/21 05:08:19;;;;;;;16.63;12.33;;;11.90;99.90;;;;;;5096463;28;20204;-75
2022/05/21 05:10:46;;;;;;;22.43;12.37;;;11.90;99.90;;;;;;5096384;28;20249;-74
2022/05/21 05:13:13;;;;;;;21.07;11.80;;;11.90;99.90;;;;;;5113210;28;20184;-75
2022/05/21 05:15:40;;;;;;;25.43;13.03;;;11.90;99.90;;;;;;5096311;28;20172;-74
2022/05/21 05:18:11;;;;;;;21.00;13.10;;;11.90;99.90;;;;;;5114336;28;20184;-74
2022/05/21 05:20:37;;;;;;;22.43;13.40;;;11.80;99.90;;;;;;5096248;28;20172;-74
2022/05/21 05:23:05;;;;;;;19.97;12.50;;;11.80;99.90;;;;;;5096213;28;20663;-75
2022/05/21 05:25:31;;;;;;;21.20;11.73;;;11.80;99.90;;;;;;5099598;28;20176;-75
2022/05/21 05:27:57;;;;;;;19.77;12.10;;;11.80;99.90;;;;;;5100541;28;20664;-73
2022/05/21 05:30:24;;;;;;;17.07;11.90;;;11.80;99.90;;;;;;5100460;28;20203;-74
2022/05/21 05:32:50;;;;;;;20.53;11.43;;;11.80;99.90;;;;;;5100308;28;20176;-74
2022/05/21 05:35:16;;;;;;;18.40;12.77;;;11.80;99.90;;;;;;5100314;28;20172;-72
2022/05/21 05:37:42;;;;;;;22.47;12.67;;;11.80;99.90;;;;;;5118639;28;20319;-75
2022/05/21 05:40:12;;;;;;;18.47;12.03;;;11.80;99.90;;;;;;5118782;28;20172;-74
2022/05/21 05:42:39;;;;;;;23.00;13.30;;;11.80;99.90;;;;;;5118450;28;20177;-73
2022/05/21 05:45:08;;;;;;;25.57;14.33;;;11.70;99.90;;;;;;5118479;28;20664;-73
2022/05/21 05:47:33;;;;;;;23.13;13.57;;;11.70;99.90;;;;;;5118357;28;20196;-73
2022/05/21 05:50:00;;;;;;;25.50;13.40;;;11.80;99.90;;;;;;5100381;28;20265;-74
2022/05/21 05:52:27;;;;;;;20.17;12.83;;;11.80;99.90;;;;;;5118757;28;20175;-73
2022/05/21 05:54:53;;;;;;;19.83;13.63;;;11.80;99.90;;;;;;5118802;28;20165;-74
2022/05/21 05:57:19;;;;;;;20.03;12.37;;;11.80;99.90;;;;;;5100178;28;20215;-73
2022/05/21 05:59:49;;;;;;;19.53;12.80;;;11.90;99.90;;;;;;5118595;28;20251;-74
2022/05/21 06:05:06;;;;;;;20.00;11.07;;;12.00;99.90;;;;;;5119347;28;20213;-73
2022/05/21 06:07:33;;;;;;;19.07;11.97;;;12.00;99.90;;;;;;5116702;28;20295;-73
2022/05/21 06:10:04;;;;;;;18.47;11.67;;;12.00;99.90;;;;;;5099920;28;20287;-73
2022/05/21 06:12:31;;;;;;;18.53;12.07;;;12.00;99.90;;;;;;5099856;28;20179;-73
2022/05/21 06:14:58;;;;;;;19.83;11.57;;;12.10;99.90;;;;;;5117817;28;20675;-72
2022/05/21 06:17:24;;;;;;;19.23;12.17;;;12.10;99.90;;;;;;5117597;28;20747;-73
2022/05/21 06:19:50;;;;;;;20.23;11.33;;;12.10;99.90;;;;;;5117601;28;20212;-73
2022/05/21 06:22:16;;;;;;;21.47;11.50;;;12.10;99.90;;;;;;5117575;28;20198;-73
2022/05/21 06:24:42;;;;;;;23.43;11.63;;;12.10;99.90;;;;;;5117992;28;20257;-73
2022/05/21 06:27:08;;;;;;;27.07;11.37;;;12.20;99.90;;;;;;5117485;28;20608;-73
2022/05/21 06:29:35;;;;;;;17.57;11.17;;;12.30;99.90;;;;;;5117417;28;20235;-73
2022/05/21 06:32:06;;;;;;;17.20;9.93;;;12.40;99.90;;;;;;5117342;28;20164;-74
2022/05/21 06:34:34;;;;;;;23.77;11.20;;;12.60;99.90;;;;;;5117817;28;20240;-73
2022/05/21 06:37:08;;;;;;;16.57;11.17;;;12.70;99.90;;;;;;5098042;28;20172;-73
2022/05/21 06:39:35;;;;;;;16.47;9.97;;;12.80;99.90;;;;;;5099288;28;20540;-73
2022/05/21 06:42:02;;;;;;;18.30;9.47;;;12.80;99.90;;;;;;5117713;28;20543;-73
2022/05/21 06:44:28;;;;;;;15.13;9.37;;;13.00;99.90;;;;;;5117385;28;20169;-73
2022/05/21 06:46:54;;;;;;;20.00;9.07;;;13.10;99.90;;;;;;5117169;28;20176;-73
2022/05/21 06:49:21;;;;;;;17.10;9.05;;;13.20;99.90;;;;;;5117591;28;20328;-72
2022/05/21 06:51:47;;;;;;;15.43;9.18;;;13.20;99.90;;;;;;5100281;28;20186;-73
2022/05/21 06:54:15;;;;;;;16.50;9.57;;;13.20;99.90;;;;;;5099935;28;20540;-72
2022/05/21 06:56:41;;;;;;;15.25;9.38;;;13.20;99.90;;;;;;5118258;28;20160;-73
2022/05/21 06:59:07;;;;;;;12.30;9.27;;;13.20;99.90;;;;;;5117606;28;20192;-72
2022/05/21 07:01:33;;;;;;;17.58;10.25;;;13.20;99.90;;;;;;5098790;28;20263;-72
2022/05/21 07:03:59;;;;;;;17.70;8.93;;;13.10;99.90;;;;;;5117715;28;20637;-72
2022/05/21 07:09:09;;;;;;;15.68;8.98;;;13.00;99.90;;;;;;5117317;28;20350;-72
2022/05/21 07:11:34;;;;;;;15.77;8.68;;;13.00;99.90;;;;;;5116574;28;20650;-72
2022/05/21 07:14:00;;;;;;;14.17;8.90;;;13.00;99.90;;;;;;5116846;28;20661;-72
2022/05/21 07:16:26;;;;;;;16.20;8.90;;;13.00;99.90;;;;;;5098749;28;20180;-73
2022/05/21 07:18:52;;;;;;;15.13;9.47;;;13.00;99.90;;;;;;5116502;28;20188;-72
2022/05/21 07:21:18;;;;;;;14.43;9.27;;;12.90;99.90;;;;;;5116693;28;20544;-72
2022/05/21 07:23:44;;;;;;;16.77;8.40;;;13.00;99.90;;;;;;5098298;28;20589;-73
2022/05/21 07:26:11;;;;;;;13.77;9.30;;;13.00;99.90;;;;;;5098111;28;20180;-73
2022/05/21 07:28:36;;;;;;;17.13;8.77;;;13.00;99.90;;;;;;5116113;28;20192;-73
2022/05/21 07:31:03;;;;;;;15.67;9.53;;;13.10;99.90;;;;;;5116262;28;20248;-72
2022/05/21 07:33:28;;;;;;;17.27;8.97;;;13.10;99.90;;;;;;5097678;28;20259;-73
2022/05/21 07:35:54;;;;;;;14.70;8.90;;;13.00;99.90;;;;;;5116274;28;20637;-72
2022/05/21 07:38:20;;;;;;;16.00;9.33;;;13.00;99.90;;;;;;5115836;28;20196;-72
2022/05/21 07:40:47;;;;;;;14.93;8.43;;;13.00;99.90;;;;;;5098114;28;20172;-72
2022/05/21 07:43:16;;;;;;;17.67;9.10;;;13.00;99.90;;;;;;5115747;28;20172;-72
2022/05/21 07:45:43;;;;;;;16.37;9.13;;;13.10;99.90;;;;;;5116062;28;20241;-72
2022/05/21 07:48:13;;;;;;;18.45;9.90;;;13.10;99.90;;;;;;5115607;28;20672;-71
2022/05/21 07:50:40;;;;;;;15.63;9.07;;;13.10;99.90;;;;;;5115511;28;20192;-72
2022/05/21 07:53:18;;;;;;;19.83;10.07;;;13.10;99.90;;;;;;5115723;28;20584;-72
2022/05/21 07:55:45;;;;;;;17.77;9.07;;;13.20;99.90;;;;;;5115771;28;20172;-72
2022/05/21 07:58:11;;;;;;;19.90;9.90;;;13.20;99.90;;;;;;5115383;28;20239;-72
2022/05/21 08:00:38;;;;;;;15.07;10.20;;;13.20;99.90;;;;;;5097010;28;20556;-71
2022/05/21 08:03:04;;;;;;;14.90;9.23;;;13.30;99.90;;;;;;5115124;28;20179;-72
2022/05/21 08:05:30;;;;;;;23.43;9.43;;;13.30;99.90;;;;;;5115593;28;20224;-72
2022/05/21 08:07:56;;;;;;;17.10;9.52;;;13.30;99.90;;;;;;5115457;28;20196;-72
2022/05/21 08:10:22;;;;;;;14.05;9.32;;;13.20;99.90;;;;;;5115256;28;20188;-72
2022/05/21 08:12:50;;;;;;;18.40;9.80;;;13.20;99.90;;;;;;5115089;28;20171;-73
2022/05/21 08:15:16;;;;;;;18.77;10.37;;;13.20;99.90;;;;;;5096810;28;20552;-72
2022/05/21 08:17:42;;;;;;;17.27;8.93;;;13.20;99.90;;;;;;5114681;28;20686;-73
2022/05/21 08:20:11;;;;;;;17.10;9.38;;;13.20;99.90;;;;;;5097151;28;20259;-72
2022/05/21 08:28:06;;;;;;;16.02;9.60;;;13.30;99.90;;;;;;5115083;28;20248;-73
2022/05/21 08:30:32;;;;;;;17.17;9.70;;;13.40;99.90;;;;;;5115502;28;20200;-72
2022/05/21 08:33:06;;;;;;;16.13;10.25;;;13.40;99.90;;;;;;5114838;28;20171;-72
2022/05/21 08:35:33;;;;;;;19.17;10.93;;;13.40;99.90;;;;;;5115229;28;20160;-72
2022/05/21 08:37:59;;;;;;;19.40;11.48;;;13.40;99.90;;;;;;5096349;28;20749;-72
2022/05/21 08:40:44;;;;;;;15.90;10.20;;;13.50;99.90;;;;;;5114820;28;20195;-72
2022/05/21 08:43:39;;;;;;;16.58;9.85;;;13.60;99.90;;;;;;5096831;28;20168;-72
2022/05/21 08:46:47;;;;;;;22.63;11.00;;;13.70;99.90;;;;;;5101407;28;20541;-72
2022/05/21 08:49:23;;;;;;;19.47;11.07;;;13.60;99.90;;;;;;5096359;28;20212;-73
2022/05/21 08:52:01;;;;;;;21.08;11.40;;;13.70;99.90;;;;;;5115272;28;20187;-72
2022/05/21 08:54:33;;;;;;;18.98;11.65;;;13.70;99.90;;;;;;5115061;28;20156;-72
2022/05/21 08:57:01;;;;;;;18.33;12.30;;;13.70;99.90;;;;;;5096331;28;20160;-73
2022/05/21 08:59:35;;;;;;;20.50;12.05;;;13.80;99.90;;;;;;5095742;28;20180;-72
2022/05/21 09:02:02;;;;;;;21.73;11.57;;;13.70;99.90;;;;;;5114338;28;20617;-72
2022/05/21 09:04:30;;;;;;;23.00;11.75;;;13.70;99.90;;;;;;5114584;28;20664;-72
2022/05/21 09:07:03;;;;;;;19.80;11.43;;;13.60;99.90;;;;;;5097158;28;20523;-72
2022/05/21 09:09:34;;;;;;;21.00;11.27;;;13.60;99.90;;;;;;5115125;28;20195;-73
2022/05/21 09:12:09;;;;;;;20.13;10.85;;;13.70;99.90;;;;;;5096428;28;20641;-73
2022/05/21 09:14:45;;;;;;;16.75;9.98;;;13.80;99.90;;;;;;5114657;28;20186;-72
2022/05/21 09:17:18;;;;;;;14.55;9.63;;;13.90;99.90;;;;;;5096495;28;20570;-73
2022/05/21 09:19:48;;;;;;;17.70;10.20;;;13.90;99.90;;;;;;5098066;28;20587;-73
2022/05/21 09:22:16;;;;;;;15.57;9.38;;;13.90;99.90;;;;;;5114928;28;20281;-72
2022/05/21 09:24:45;;;;;;;14.10;8.57;;;13.90;99.90;;;;;;5114750;28;20181;-72
2022/05/21 09:27:30;;;;;;;14.75;9.70;;;14.00;99.90;;;;;;5096686;28;20196;-73
2022/05/21 09:30:47;;;;;;;13.98;8.02;;;14.00;99.90;;;;;;5114991;28;20283;-72
2022/05/21 09:33:51;;;;;;;18.33;8.68;;;13.90;99.90;;;;;;5059181;28;20187;-73
2022/05/21 09:36:30;;;;;;;16.15;8.13;;;13.90;99.90;;;;;;4998144;28;20731;-73
2022/05/21 09:38:56;;;;;;;17.45;9.48;;;14.00;99.90;;;;;;5014444;28;20290;-73
2022/05/21 09:41:27;;;;;;;14.40;8.63;;;14.00;99.90;;;;;;5058753;28;20216;-73
2022/05/21 09:46:45;;;;;;;12.65;8.30;;;14.10;99.90;;;;;;5101238;28;20169;-73
2022/05/21 09:49:31;;;;;;;16.60;8.45;;;14.20;99.90;;;;;;5100108;28;20201;-73
2022/05/21 09:52:03;;;;;;;15.20;9.02;;;14.30;99.90;;;;;;5077710;28;20188;-72
2022/05/21 09:54:41;;;;;;;18.00;7.80;;;14.30;99.90;;;;;;5096649;28;20192;-73
2022/05/21 09:57:43;;;;;;;16.05;7.78;;;14.40;99.90;;;;;;5096560;28;20155;-73
2022/05/21 10:00:32;;;;;;;13.75;8.35;;;14.60;99.90;;;;;;5078918;28;20729;-73
2022/05/21 10:03:01;;;;;;;13.98;8.00;;;14.70;99.90;;;;;;5096783;28;20199;-73
2022/05/21 10:05:53;;;;;;;15.85;8.30;;;14.80;99.90;;;;;;5077611;28;20181;-73
2022/05/21 10:11:39;;;;;;;21.63;8.55;;;15.20;99.90;;;;;;5115993;28;20168;-72
2022/05/21 10:14:11;;;;;;;11.70;8.30;;;15.40;99.90;;;;;;5118588;28;20196;-72
2022/05/21 10:16:58;;;;;;;14.57;8.05;;;15.70;99.90;;;;;;5118190;28;20195;-71
2022/05/21 10:19:26;;;;;;;13.98;8.35;;;15.60;99.90;;;;;;5099626;28;20176;-71
2022/05/21 10:22:04;;;;;;;12.30;8.32;;;15.40;99.90;;;;;;5118070;28;20183;-74
2022/05/21 10:24:50;;;;;;;15.30;8.48;;;15.50;99.90;;;;;;5118349;28;20538;-71
2022/05/21 10:27:38;;;;;;;14.55;8.10;;;15.70;99.90;;;;;;5117934;28;20200;-72
2022/05/21 10:30:09;;;;;;;12.55;8.10;;;15.90;99.90;;;;;;5099316;28;20202;-72
2022/05/21 10:33:16;;;;;;;16.13;7.22;;;16.20;99.90;;;;;;5117519;28;20581;-71
2022/05/21 10:35:58;;;;;;;14.30;7.90;;;16.50;99.90;;;;;;5118619;28;20168;-73
2022/05/21 10:38:42;;;;;;;11.13;8.20;;;16.50;99.90;;;;;;5117391;28;20204;-69
2022/05/21 10:41:34;;;;;;;19.83;8.57;;;16.70;99.90;;;;;;5117849;28;20222;-68
2022/05/21 10:44:34;;;;;;;10.43;7.20;;;16.90;99.90;;;;;;5099428;28;20658;-70
2022/05/21 10:47:24;;;;;;;12.63;7.10;;;17.00;99.90;;;;;;5116899;28;20637;-70
2022/05/21 10:50:26;;;;;;;13.88;7.25;;;16.90;99.90;;;;;;5098814;28;20233;-73
2022/05/21 10:53:36;;;;;;;14.07;6.68;;;17.00;99.90;;;;;;5117324;28;20159;-72
2022/05/21 10:56:34;;;;;;;13.38;6.05;;;17.10;99.90;;;;;;5117260;28;20164;-71
2022/05/21 10:59:17;;;;;;;10.95;5.60;;;17.30;99.90;;;;;;5116831;28;20263;-72
2022/05/21 11:01:43;;;;;;;11.73;6.40;;;17.50;99.90;;;;;;5116891;28;20152;-70
2022/05/21 11:04:18;;;;;;;12.18;6.20;;;17.90;99.90;;;;;;5098004;28;20169;-73
2022/05/21 11:07:05;;;;;;;11.73;6.22;;;18.30;99.90;;;;;;5098466;28;20175;-72
2022/05/21 11:09:54;;;;;;;14.45;6.72;;;18.20;99.90;;;;;;5116530;28;20245;-72
2022/05/21 11:12:28;;;;;;;11.55;6.15;;;17.70;99.90;;;;;;5098612;28;20706;-72
2022/05/21 11:14:57;;;;;;;14.82;6.50;;;17.70;99.90;;;;;;5116247;28;20183;-72
2022/05/21 11:17:42;;;;;;;14.07;5.65;;;17.30;99.90;;;;;;5097738;28;20224;-72
2022/05/21 11:20:25;;;;;;;14.20;6.45;;;17.20;99.90;;;;;;5116674;28;20605;-71
2022/05/21 11:23:10;;;;;;;16.63;6.63;;;17.00;99.90;;;;;;5116429;28;20164;-72
2022/05/21 11:25:57;;;;;;;12.63;7.15;;;16.90;99.90;;;;;;5117214;28;20163;-72
2022/05/21 11:28:52;;;;;;;15.60;6.80;;;16.50;99.90;;;;;;5097825;28;20199;-72
2022/05/21 11:37:42;;;;;;;12.20;5.78;;;16.00;99.90;;;;;;5116047;28;20684;-72
2022/05/21 11:40:09;;;;;;;8.27;5.68;;;15.90;99.90;;;;;;5098283;28;20607;-72
2022/05/21 11:42:36;;;;;;;10.13;5.50;;;15.90;99.90;;;;;;5097723;28;20176;-76
2022/05/21 11:45:21;;;;;;;13.45;6.10;;;15.90;99.90;;;;;;5097642;28;20625;-74
2022/05/21 11:47:52;;;;;;;11.13;4.85;;;16.00;99.90;;;;;;5115685;28;20199;-74
2022/05/21 11:50:24;;;;;;;10.35;5.32;;;16.10;99.90;;;;;;5097517;28;20656;-73
2022/05/21 11:52:57;;;;;;;10.35;6.22;;;16.20;99.90;;;;;;5116636;28;20165;-74
2022/05/21 11:55:25;;;;;;;11.48;7.40;;;16.20;99.90;;;;;;5097784;28;20177;-74
2022/05/21 11:58:07;;;;;;;12.15;6.47;;;16.20;99.90;;;;;;5115880;28;20268;-77
2022/05/21 12:00:32;;;;;;;12.57;5.43;;;16.30;99.90;;;;;;5099043;28;20172;-78
2022/05/21 12:02:58;;;;;;;8.93;5.82;;;16.50;99.90;;;;;;5097602;28;20551;-77
2022/05/21 12:05:37;;;;;;;10.40;5.53;;;16.60;99.90;;;;;;5097125;28;20219;-75
2022/05/21 12:08:15;;;;;;;11.00;6.25;;;16.70;99.90;;;;;;5115531;28;20202;-77
2022/05/21 12:11:02;;;;;;;8.82;5.80;;;16.70;99.90;;;;;;5097400;28;20199;-76
2022/05/21 12:13:33;;;;;;;10.18;5.63;;;16.40;99.90;;;;;;5115547;28;20555;-71
2022/05/21 12:16:15;;;;;;;11.48;5.47;;;16.40;99.90;;;;;;5115315;28;20203;-70
2022/05/21 12:18:42;;;;;;;11.60;5.55;;;16.30;99.90;;;;;;5115338;28;20211;-68
2022/05/21 12:21:40;;;;;;;9.45;5.57;;;16.20;99.90;;;;;;5115018;28;20153;-68
2022/05/21 12:24:34;;;;;;;12.48;5.75;;;16.30;99.90;;;;;;5115027;28;20172;-71
2022/05/21 12:27:22;;;;;;;8.82;5.60;;;16.40;99.90;;;;;;5114984;28;20612;-70
2022/05/21 12:29:51;;;;;;;12.73;5.93;;;16.60;99.90;;;;;;5096296;28;20196;-68
2022/05/21 12:32:24;;;;;;;12.15;6.40;;;16.80;99.90;;;;;;5096264;28;20259;-68
2022/05/21 12:35:26;;;;;;;9.73;5.85;;;17.10;99.90;;;;;;5113571;28;20160;-69
2022/05/21 12:38:09;;;;;;;10.77;5.80;;;17.20;99.90;;;;;;5096025;28;20200;-70
2022/05/21 12:40:51;;;;;;;10.88;5.90;;;17.30;99.90;;;;;;5114776;28;20735;-69
2022/05/21 12:43:17;;;;;;;11.68;5.53;;;17.50;99.90;;;;;;5096549;28;20612;-68
2022/05/21 12:45:49;;;;;;;12.20;5.53;;;17.80;99.90;;;;;;5115085;28;20194;-69
2022/05/21 12:48:17;;;;;;;10.27;5.25;;;18.30;99.90;;;;;;5114324;28;20196;-70
2022/05/21 12:50:54;;;;;;;8.43;5.45;;;18.40;99.90;;;;;;5114665;28;20196;-68
2022/05/21 12:53:41;;;;;;;10.50;4.97;;;18.00;99.90;;;;;;5096240;28;20164;-68
2022/05/21 12:56:26;;;;;;;14.23;5.40;;;17.60;99.90;;;;;;5114697;28;20159;-69
2022/05/21 12:59:04;;;;;;;16.33;5.78;;;17.40;99.90;;;;;;5114341;28;20192;-70
2022/05/21 13:01:31;;;;;;;13.98;5.70;;;17.50;99.90;;;;;;5114283;28;20190;-69
2022/05/21 13:04:00;;;;;;;8.85;4.85;;;17.50;99.90;;;;;;5095790;28;20204;-70
2022/05/21 13:06:31;;;;;;;10.38;5.25;;;17.70;99.90;;;;;;5114127;28;20255;-69
2022/05/21 13:09:00;;;;;;;14.23;5.43;;;17.80;99.90;;;;;;5113973;28;20597;-69
2022/05/21 13:11:40;;;;;;;12.15;5.70;;;17.70;99.90;;;;;;5114079;28;20172;-68
2022/05/21 13:14:10;;;;;;;9.80;5.35;;;17.80;99.90;;;;;;5114010;28;20567;-69
2022/05/21 13:16:49;;;;;;;11.80;5.38;;;17.70;99.90;;;;;;5114210;28;20225;-69
2022/05/21 13:19:21;;;;;;;11.13;5.97;;;17.90;99.90;;;;;;5095473;28;20188;-68
2022/05/21 13:22:00;;;;;;;12.23;5.25;;;18.20;99.90;;;;;;5114243;28;20164;-70
2022/05/21 13:24:31;;;;;;;13.32;5.55;;;18.10;99.90;;;;;;5114285;28;20165;-70